sensor_id;sensor_type;location;lat;lon;timestamp;temperature;humidity
997;DHT22;487;50.126;8.698;2022-08-01T00:00:48;25.60;99.90
997;DHT22;487;50.126;8.698;2022-08-01T00:03:16;25.60;99.90
997;DHT22;487;50.126;8.698;2022-08-01T00:05:44;25.60;99.90
997;DHT22;487;50.126;8.698;2022-08-01T00:08:13;25.70;99.90
997;DHT22;487;50.126;8.698;2022-08-01T00:10:42;25.60;99.90
997;DHT22;487;50.126;8.698;2022-08-01T00:13:10;25.50;99.90
997;DHT22;487;50.126;8.698;2022-08-01T00:15:38;25.60;99.90
997;DHT22;487;50.126;8.698;2022-08-01T00:18:05;25.50;99.90
997;DHT22;487;50.126;8.698;2022-08-01T00:20:33;25.50;99.90
997;DHT22;487;50.126;8.698;2022-08-01T00:23:02;25.50;99.90
997;DHT22;487;50.126;8.698;2022-08-01T00:25:30;25.50;99.90
997;DHT22;487;50.126;8.698;2022-08-01T00:28:01;25.50;99.90
997;DHT22;487;50.126;8.698;2022-08-01T00:30:33;25.40;99.90
997;DHT22;487;50.126;8.698;2022-08-01T00:33:01;25.30;99.90
997;DHT22;487;50.126;8.698;2022-08-01T00:37:57;25.30;99.90
997;DHT22;487;50.126;8.698;2022-08-01T00:40:25;25.20;99.90
997;DHT22;487;50.126;8.698;2022-08-01T00:42:53;25.20;99.90
997;DHT22;487;50.126;8.698;2022-08-01T00:45:22;25.20;99.90
997;DHT22;487;50.126;8.698;2022-08-01T00:47:51;24.00;99.90
997;DHT22;487;50.126;8.698;2022-08-01T00:50:21;25.10;99.90
997;DHT22;487;50.126;8.698;2022-08-01T00:52:50;25.00;99.90
997;DHT22;487;50.126;8.698;2022-08-01T00:55:19;25.00;99.90
997;DHT22;487;50.126;8.698;2022-08-01T00:57:48;25.00;99.90
997;DHT22;487;50.126;8.698;2022-08-01T01:00:34;25.00;99.90
997;DHT22;487;50.126;8.698;2022-08-01T01:03:20;25.00;99.90
997;DHT22;487;50.126;8.698;2022-08-01T01:06:18;24.90;99.90
997;DHT22;487;50.126;8.698;2022-08-01T01:08:55;24.90;99.90
997;DHT22;487;50.126;8.698;2022-08-01T01:11:40;24.90;99.90
997;DHT22;487;50.126;8.698;2022-08-01T01:14:19;24.90;99.90
997;DHT22;487;50.126;8.698;2022-08-01T01:16:51;24.80;99.90
997;DHT22;487;50.126;8.698;2022-08-01T01:19:24;24.80;99.90
997;DHT22;487;50.126;8.698;2022-08-01T01:22:07;24.80;99.90
997;DHT22;487;50.126;8.698;2022-08-01T01:24:44;24.80;99.90
997;DHT22;487;50.126;8.698;2022-08-01T01:27:21;24.70;99.90
997;DHT22;487;50.126;8.698;2022-08-01T01:29:54;24.70;99.90
997;DHT22;487;50.126;8.698;2022-08-01T01:32:31;24.70;99.90
997;DHT22;487;50.126;8.698;2022-08-01T01:35:03;24.70;99.90
997;DHT22;487;50.126;8.698;2022-08-01T01:37:33;24.60;99.90
997;DHT22;487;50.126;8.698;2022-08-01T01:40:04;24.50;99.90
997;DHT22;487;50.126;8.698;2022-08-01T01:42:33;24.50;99.90
997;DHT22;487;50.126;8.698;2022-08-01T01:45:05;24.50;99.90
997;DHT22;487;50.126;8.698;2022-08-01T01:47:34;24.50;99.90
997;DHT22;487;50.126;8.698;2022-08-01T01:50:05;24.50;99.90
997;DHT22;487;50.126;8.698;2022-08-01T01:52:35;24.50;99.90
997;DHT22;487;50.126;8.698;2022-08-01T01:55:06;24.50;99.90
997;DHT22;487;50.126;8.698;2022-08-01T01:57:37;24.50;99.90
997;DHT22;487;50.126;8.698;2022-08-01T02:00:09;24.50;99.90
997;DHT22;487;50.126;8.698;2022-08-01T02:02:38;24.40;99.90
997;DHT22;487;50.126;8.698;2022-08-01T02:05:09;24.40;99.90
997;DHT22;487;50.126;8.698;2022-08-01T02:07:39;24.40;99.90
997;DHT22;487;50.126;8.698;2022-08-01T02:10:08;24.40;99.90
997;DHT22;487;50.126;8.698;2022-08-01T02:12:40;24.30;99.90
997;DHT22;487;50.126;8.698;2022-08-01T02:15:11;24.30;99.90
997;DHT22;487;50.126;8.698;2022-08-01T02:17:43;24.30;99.90
997;DHT22;487;50.126;8.698;2022-08-01T02:20:12;24.30;99.90
997;DHT22;487;50.126;8.698;2022-08-01T02:22:42;24.30;99.90
997;DHT22;487;50.126;8.698;2022-08-01T02:25:18;24.30;99.90
997;DHT22;487;50.126;8.698;2022-08-01T02:27:55;24.30;99.90
997;DHT22;487;50.126;8.698;2022-08-01T02:30:27;24.20;99.90
997;DHT22;487;50.126;8.698;2022-08-01T02:33:01;24.20;99.90
997;DHT22;487;50.126;8.698;2022-08-01T02:35:32;24.20;99.90
997;DHT22;487;50.126;8.698;2022-08-01T02:38:23;24.10;99.90
997;DHT22;487;50.126;8.698;2022-08-01T02:40:53;24.00;99.90
997;DHT22;487;50.126;8.698;2022-08-01T02:43:26;24.00;99.90
997;DHT22;487;50.126;8.698;2022-08-01T02:46:01;23.90;99.90
997;DHT22;487;50.126;8.698;2022-08-01T02:48:32;23.90;99.90
997;DHT22;487;50.126;8.698;2022-08-01T02:51:02;23.90;99.90
997;DHT22;487;50.126;8.698;2022-08-01T02:53:32;23.90;99.90
997;DHT22;487;50.126;8.698;2022-08-01T02:56:12;23.80;99.90
997;DHT22;487;50.126;8.698;2022-08-01T02:58:41;23.90;99.90
997;DHT22;487;50.126;8.698;2022-08-01T03:01:13;23.90;99.90
997;DHT22;487;50.126;8.698;2022-08-01T03:03:45;23.80;99.90
997;DHT22;487;50.126;8.698;2022-08-01T03:06:14;23.80;99.90
997;DHT22;487;50.126;8.698;2022-08-01T03:08:43;23.80;99.90
997;DHT22;487;50.126;8.698;2022-08-01T03:11:12;23.80;99.90
997;DHT22;487;50.126;8.698;2022-08-01T03:13:41;23.70;99.90
997;DHT22;487;50.126;8.698;2022-08-01T03:16:13;23.70;99.90
997;DHT22;487;50.126;8.698;2022-08-01T03:18:43;23.70;99.90
997;DHT22;487;50.126;8.698;2022-08-01T03:21:13;23.70;99.90
997;DHT22;487;50.126;8.698;2022-08-01T03:23:42;23.60;99.90
997;DHT22;487;50.126;8.698;2022-08-01T03:26:12;23.70;99.90
997;DHT22;487;50.126;8.698;2022-08-01T03:28:41;23.70;99.90
997;DHT22;487;50.126;8.698;2022-08-01T03:31:13;23.70;99.90
997;DHT22;487;50.126;8.698;2022-08-01T03:33:41;23.70;99.90
997;DHT22;487;50.126;8.698;2022-08-01T03:36:10;23.70;99.90
997;DHT22;487;50.126;8.698;2022-08-01T03:38:40;23.80;99.90
997;DHT22;487;50.126;8.698;2022-08-01T03:41:13;23.80;99.90
997;DHT22;487;50.126;8.698;2022-08-01T03:43:43;23.80;99.90
997;DHT22;487;50.126;8.698;2022-08-01T03:46:19;23.70;99.90
997;DHT22;487;50.126;8.698;2022-08-01T03:48:53;23.80;99.90
997;DHT22;487;50.126;8.698;2022-08-01T03:51:23;23.80;99.90
997;DHT22;487;50.126;8.698;2022-08-01T03:53:53;23.70;99.90
997;DHT22;487;50.126;8.698;2022-08-01T03:56:23;23.70;99.90
997;DHT22;487;50.126;8.698;2022-08-01T04:01:21;23.60;99.90
997;DHT22;487;50.126;8.698;2022-08-01T04:03:49;23.60;99.90
997;DHT22;487;50.126;8.698;2022-08-01T04:06:17;23.60;99.90
997;DHT22;487;50.126;8.698;2022-08-01T04:08:45;23.60;99.90
997;DHT22;487;50.126;8.698;2022-08-01T04:11:23;23.60;99.90
997;DHT22;487;50.126;8.698;2022-08-01T04:13:51;23.40;99.90
997;DHT22;487;50.126;8.698;2022-08-01T04:16:22;23.40;99.90
997;DHT22;487;50.126;8.698;2022-08-01T04:18:50;23.40;99.90
997;DHT22;487;50.126;8.698;2022-08-01T04:21:22;23.40;99.90
997;DHT22;487;50.126;8.698;2022-08-01T04:23:51;23.40;99.90
997;DHT22;487;50.126;8.698;2022-08-01T04:26:21;21.70;99.90
997;DHT22;487;50.126;8.698;2022-08-01T04:28:51;23.50;99.90
997;DHT22;487;50.126;8.698;2022-08-01T04:31:22;23.40;99.90
997;DHT22;487;50.126;8.698;2022-08-01T04:33:54;23.50;99.90
997;DHT22;487;50.126;8.698;2022-08-01T04:36:24;23.30;99.90
997;DHT22;487;50.126;8.698;2022-08-01T04:38:55;23.20;99.90
997;DHT22;487;50.126;8.698;2022-08-01T04:41:25;23.10;99.90
997;DHT22;487;50.126;8.698;2022-08-01T04:43:54;23.00;99.90
997;DHT22;487;50.126;8.698;2022-08-01T04:46:23;22.90;99.90
997;DHT22;487;50.126;8.698;2022-08-01T04:48:51;23.00;99.90
997;DHT22;487;50.126;8.698;2022-08-01T04:51:21;23.00;99.90
997;DHT22;487;50.126;8.698;2022-08-01T04:53:49;22.90;99.90
997;DHT22;487;50.126;8.698;2022-08-01T04:56:18;22.90;99.90
997;DHT22;487;50.126;8.698;2022-08-01T04:58:47;23.00;99.90
997;DHT22;487;50.126;8.698;2022-08-01T05:01:49;23.00;99.90
997;DHT22;487;50.126;8.698;2022-08-01T05:04:18;23.00;99.90
997;DHT22;487;50.126;8.698;2022-08-01T05:06:46;23.10;99.90
997;DHT22;487;50.126;8.698;2022-08-01T05:09:13;23.10;99.90
997;DHT22;487;50.126;8.698;2022-08-01T05:11:42;23.30;99.90
997;DHT22;487;50.126;8.698;2022-08-01T05:14:10;23.30;99.90
997;DHT22;487;50.126;8.698;2022-08-01T05:16:38;23.30;99.90
997;DHT22;487;50.126;8.698;2022-08-01T05:19:08;23.30;99.90
997;DHT22;487;50.126;8.698;2022-08-01T05:21:36;23.30;99.90
997;DHT22;487;50.126;8.698;2022-08-01T05:24:04;23.30;99.90
997;DHT22;487;50.126;8.698;2022-08-01T05:26:34;23.40;99.90
997;DHT22;487;50.126;8.698;2022-08-01T05:29:02;23.40;99.90
997;DHT22;487;50.126;8.698;2022-08-01T05:31:30;23.40;99.90
997;DHT22;487;50.126;8.698;2022-08-01T05:34:00;23.40;99.90
997;DHT22;487;50.126;8.698;2022-08-01T05:36:30;23.40;99.90
997;DHT22;487;50.126;8.698;2022-08-01T05:38:58;23.50;99.90
997;DHT22;487;50.126;8.698;2022-08-01T05:41:26;23.50;99.90
997;DHT22;487;50.126;8.698;2022-08-01T05:43:54;23.50;99.90
997;DHT22;487;50.126;8.698;2022-08-01T05:46:22;23.40;99.90
997;DHT22;487;50.126;8.698;2022-08-01T05:48:53;23.30;99.90
997;DHT22;487;50.126;8.698;2022-08-01T05:51:21;23.30;99.90
997;DHT22;487;50.126;8.698;2022-08-01T05:56:19;23.20;99.90
997;DHT22;487;50.126;8.698;2022-08-01T05:58:47;23.20;99.90
997;DHT22;487;50.126;8.698;2022-08-01T06:01:15;23.20;99.90
997;DHT22;487;50.126;8.698;2022-08-01T06:03:43;23.30;99.90
997;DHT22;487;50.126;8.698;2022-08-01T06:06:11;23.30;99.90
997;DHT22;487;50.126;8.698;2022-08-01T06:08:40;23.30;99.90
997;DHT22;487;50.126;8.698;2022-08-01T06:11:10;23.40;99.90
997;DHT22;487;50.126;8.698;2022-08-01T06:13:39;23.30;99.90
997;DHT22;487;50.126;8.698;2022-08-01T06:18:48;23.20;99.90
997;DHT22;487;50.126;8.698;2022-08-01T06:21:22;23.00;99.90
997;DHT22;487;50.126;8.698;2022-08-01T06:23:50;23.00;99.90
997;DHT22;487;50.126;8.698;2022-08-01T06:26:19;23.00;99.90
997;DHT22;487;50.126;8.698;2022-08-01T06:28:47;23.10;99.90
997;DHT22;487;50.126;8.698;2022-08-01T06:31:15;23.00;99.90
997;DHT22;487;50.126;8.698;2022-08-01T06:33:42;23.00;99.90
997;DHT22;487;50.126;8.698;2022-08-01T06:36:10;23.00;99.90
997;DHT22;487;50.126;8.698;2022-08-01T06:38:38;23.10;99.90
997;DHT22;487;50.126;8.698;2022-08-01T06:41:06;23.10;99.90
997;DHT22;487;50.126;8.698;2022-08-01T06:43:35;23.10;99.90
997;DHT22;487;50.126;8.698;2022-08-01T06:46:04;23.20;99.90
997;DHT22;487;50.126;8.698;2022-08-01T06:48:32;23.30;99.90
997;DHT22;487;50.126;8.698;2022-08-01T06:51:01;24.00;99.90
997;DHT22;487;50.126;8.698;2022-08-01T06:53:36;23.50;99.90
997;DHT22;487;50.126;8.698;2022-08-01T06:56:04;25.30;99.90
997;DHT22;487;50.126;8.698;2022-08-01T06:58:33;23.70;99.90
997;DHT22;487;50.126;8.698;2022-08-01T07:01:04;23.70;99.90
997;DHT22;487;50.126;8.698;2022-08-01T07:03:34;23.90;99.90
997;DHT22;487;50.126;8.698;2022-08-01T07:06:21;23.90;99.90
997;DHT22;487;50.126;8.698;2022-08-01T07:08:49;23.90;99.90
997;DHT22;487;50.126;8.698;2022-08-01T07:11:17;23.90;99.90
997;DHT22;487;50.126;8.698;2022-08-01T07:13:45;24.00;99.90
997;DHT22;487;50.126;8.698;2022-08-01T07:16:15;24.00;99.90
997;DHT22;487;50.126;8.698;2022-08-01T07:18:43;24.00;99.90
997;DHT22;487;50.126;8.698;2022-08-01T07:21:11;24.00;99.90
997;DHT22;487;50.126;8.698;2022-08-01T07:23:59;24.00;99.90
997;DHT22;487;50.126;8.698;2022-08-01T07:26:27;24.10;99.90
997;DHT22;487;50.126;8.698;2022-08-01T07:28:55;24.20;99.90
997;DHT22;487;50.126;8.698;2022-08-01T07:31:24;24.20;99.90
997;DHT22;487;50.126;8.698;2022-08-01T07:33:57;24.30;99.90
997;DHT22;487;50.126;8.698;2022-08-01T07:36:25;24.30;99.90
997;DHT22;487;50.126;8.698;2022-08-01T07:38:53;24.30;99.90
997;DHT22;487;50.126;8.698;2022-08-01T07:41:21;24.30;99.90
997;DHT22;487;50.126;8.698;2022-08-01T07:44:09;24.30;99.90
997;DHT22;487;50.126;8.698;2022-08-01T07:46:38;24.30;99.90
997;DHT22;487;50.126;8.698;2022-08-01T07:49:06;24.20;99.90
997;DHT22;487;50.126;8.698;2022-08-01T07:51:35;24.10;99.90
997;DHT22;487;50.126;8.698;2022-08-01T07:54:02;24.10;99.90
997;DHT22;487;50.126;8.698;2022-08-01T07:56:30;24.00;99.90
997;DHT22;487;50.126;8.698;2022-08-01T07:58:58;24.00;99.90
997;DHT22;487;50.126;8.698;2022-08-01T08:01:26;24.00;99.90
997;DHT22;487;50.126;8.698;2022-08-01T08:03:56;24.10;99.90
997;DHT22;487;50.126;8.698;2022-08-01T08:06:24;24.10;99.90
997;DHT22;487;50.126;8.698;2022-08-01T08:08:52;24.20;99.90
997;DHT22;487;50.126;8.698;2022-08-01T08:11:20;24.20;99.90
997;DHT22;487;50.126;8.698;2022-08-01T08:13:48;24.40;99.90
997;DHT22;487;50.126;8.698;2022-08-01T08:16:16;24.50;99.90
997;DHT22;487;50.126;8.698;2022-08-01T08:18:44;24.60;99.90
997;DHT22;487;50.126;8.698;2022-08-01T08:21:13;24.80;99.90
997;DHT22;487;50.126;8.698;2022-08-01T08:23:41;24.90;99.90
997;DHT22;487;50.126;8.698;2022-08-01T08:26:27;24.90;99.90
997;DHT22;487;50.126;8.698;2022-08-01T08:28:55;25.10;99.90
997;DHT22;487;50.126;8.698;2022-08-01T08:31:22;25.10;99.90
997;DHT22;487;50.126;8.698;2022-08-01T08:34:10;25.10;99.90
997;DHT22;487;50.126;8.698;2022-08-01T08:36:44;25.10;99.90
997;DHT22;487;50.126;8.698;2022-08-01T08:39:13;25.10;99.90
997;DHT22;487;50.126;8.698;2022-08-01T08:41:43;25.10;99.90
997;DHT22;487;50.126;8.698;2022-08-01T08:44:15;25.10;99.90
997;DHT22;487;50.126;8.698;2022-08-01T08:46:44;25.10;99.90
997;DHT22;487;50.126;8.698;2022-08-01T08:49:17;25.10;99.90
997;DHT22;487;50.126;8.698;2022-08-01T08:51:48;25.10;99.90
997;DHT22;487;50.126;8.698;2022-08-01T08:54:18;25.10;99.90
997;DHT22;487;50.126;8.698;2022-08-01T08:56:47;25.10;99.90
997;DHT22;487;50.126;8.698;2022-08-01T08:59:15;25.10;99.90
997;DHT22;487;50.126;8.698;2022-08-01T09:01:43;25.20;99.90
997;DHT22;487;50.126;8.698;2022-08-01T09:04:12;25.20;99.90
997;DHT22;487;50.126;8.698;2022-08-01T09:06:40;25.20;99.90
997;DHT22;487;50.126;8.698;2022-08-01T09:09:10;25.30;99.90
997;DHT22;487;50.126;8.698;2022-08-01T09:14:08;25.40;99.90
997;DHT22;487;50.126;8.698;2022-08-01T09:16:40;25.50;99.90
997;DHT22;487;50.126;8.698;2022-08-01T09:19:16;25.50;99.90
997;DHT22;487;50.126;8.698;2022-08-01T09:22:07;25.60;99.90
997;DHT22;487;50.126;8.698;2022-08-01T09:24:38;25.60;99.90
997;DHT22;487;50.126;8.698;2022-08-01T09:27:17;25.60;99.90
997;DHT22;487;50.126;8.698;2022-08-01T09:29:48;25.70;99.90
997;DHT22;487;50.126;8.698;2022-08-01T09:32:29;25.80;99.90
997;DHT22;487;50.126;8.698;2022-08-01T09:35:22;25.90;99.90
997;DHT22;487;50.126;8.698;2022-08-01T09:38:17;25.90;99.90
997;DHT22;487;50.126;8.698;2022-08-01T09:40:51;26.20;99.90
997;DHT22;487;50.126;8.698;2022-08-01T09:43:23;26.30;99.90
997;DHT22;487;50.126;8.698;2022-08-01T09:45:53;26.30;99.90
997;DHT22;487;50.126;8.698;2022-08-01T09:48:24;26.50;99.90
997;DHT22;487;50.126;8.698;2022-08-01T09:50:56;26.50;99.90
997;DHT22;487;50.126;8.698;2022-08-01T09:53:40;26.50;99.90
997;DHT22;487;50.126;8.698;2022-08-01T09:56:21;26.60;99.90
997;DHT22;487;50.126;8.698;2022-08-01T09:58:51;26.70;99.90
997;DHT22;487;50.126;8.698;2022-08-01T10:01:27;26.80;99.90
997;DHT22;487;50.126;8.698;2022-08-01T10:04:09;26.80;99.90
997;DHT22;487;50.126;8.698;2022-08-01T10:06:39;26.70;99.90
997;DHT22;487;50.126;8.698;2022-08-01T10:09:09;26.70;99.90
997;DHT22;487;50.126;8.698;2022-08-01T10:11:42;26.90;99.90
997;DHT22;487;50.126;8.698;2022-08-01T10:14:11;26.90;99.90
997;DHT22;487;50.126;8.698;2022-08-01T10:16:45;27.10;99.90
997;DHT22;487;50.126;8.698;2022-08-01T10:19:21;27.10;99.90
997;DHT22;487;50.126;8.698;2022-08-01T10:21:50;27.20;99.90
997;DHT22;487;50.126;8.698;2022-08-01T10:24:26;27.40;99.90
997;DHT22;487;50.126;8.698;2022-08-01T10:26:58;27.30;99.90
997;DHT22;487;50.126;8.698;2022-08-01T10:29:36;27.50;99.90
997;DHT22;487;50.126;8.698;2022-08-01T10:32:24;27.70;99.90
997;DHT22;487;50.126;8.698;2022-08-01T10:34:55;27.80;99.90
997;DHT22;487;50.126;8.698;2022-08-01T10:37:24;27.80;99.90
997;DHT22;487;50.126;8.698;2022-08-01T10:39:53;27.80;99.90
997;DHT22;487;50.126;8.698;2022-08-01T10:42:44;27.80;99.90
997;DHT22;487;50.126;8.698;2022-08-01T10:45:14;27.70;99.90
997;DHT22;487;50.126;8.698;2022-08-01T10:50:21;27.90;99.90
997;DHT22;487;50.126;8.698;2022-08-01T10:53:10;27.80;99.90
997;DHT22;487;50.126;8.698;2022-08-01T10:55:47;27.80;99.90
997;DHT22;487;50.126;8.698;2022-08-01T10:58:22;28.00;99.90
997;DHT22;487;50.126;8.698;2022-08-01T11:01:15;28.10;99.90
997;DHT22;487;50.126;8.698;2022-08-01T11:03:57;28.00;99.90
997;DHT22;487;50.126;8.698;2022-08-01T11:06:38;28.00;99.90
997;DHT22;487;50.126;8.698;2022-08-01T11:09:20;28.00;99.90
997;DHT22;487;50.126;8.698;2022-08-01T11:12:05;27.70;99.90
997;DHT22;487;50.126;8.698;2022-08-01T11:17:43;27.50;99.90
997;DHT22;487;50.126;8.698;2022-08-01T11:20:15;27.20;99.90
997;DHT22;487;50.126;8.698;2022-08-01T11:26:09;26.90;99.90
997;DHT22;487;50.126;8.698;2022-08-01T11:31:29;26.80;99.90
997;DHT22;487;50.126;8.698;2022-08-01T11:34:05;26.80;99.90
997;DHT22;487;50.126;8.698;2022-08-01T11:36:33;26.70;99.90
997;DHT22;487;50.126;8.698;2022-08-01T11:39:21;26.90;99.90
997;DHT22;487;50.126;8.698;2022-08-01T11:41:50;27.30;99.90
997;DHT22;487;50.126;8.698;2022-08-01T11:44:21;27.30;99.90
997;DHT22;487;50.126;8.698;2022-08-01T11:47:00;27.40;99.90
997;DHT22;487;50.126;8.698;2022-08-01T11:49:47;27.30;99.90
997;DHT22;487;50.126;8.698;2022-08-01T11:52:22;27.60;99.90
997;DHT22;487;50.126;8.698;2022-08-01T11:54:53;27.70;99.90
997;DHT22;487;50.126;8.698;2022-08-01T11:57:23;27.90;99.90
997;DHT22;487;50.126;8.698;2022-08-01T12:00:04;28.00;99.90
997;DHT22;487;50.126;8.698;2022-08-01T12:02:34;28.20;99.90
997;DHT22;487;50.126;8.698;2022-08-01T12:05:06;28.30;99.90
997;DHT22;487;50.126;8.698;2022-08-01T12:07:39;28.50;99.90
997;DHT22;487;50.126;8.698;2022-08-01T12:10:09;28.80;99.90
997;DHT22;487;50.126;8.698;2022-08-01T12:12:42;28.90;99.90
997;DHT22;487;50.126;8.698;2022-08-01T12:15:11;29.00;99.90
997;DHT22;487;50.126;8.698;2022-08-01T12:17:40;29.10;99.90
997;DHT22;487;50.126;8.698;2022-08-01T12:20:28;29.20;99.90
997;DHT22;487;50.126;8.698;2022-08-01T12:22:59;29.20;99.90
997;DHT22;487;50.126;8.698;2022-08-01T12:28:00;29.20;99.90
997;DHT22;487;50.126;8.698;2022-08-01T12:30:29;29.30;99.90
997;DHT22;487;50.126;8.698;2022-08-01T12:32:58;29.40;99.90
997;DHT22;487;50.126;8.698;2022-08-01T12:35:28;29.50;99.90
997;DHT22;487;50.126;8.698;2022-08-01T12:37:58;29.50;99.90
997;DHT22;487;50.126;8.698;2022-08-01T12:40:27;29.60;99.90
997;DHT22;487;50.126;8.698;2022-08-01T12:42:57;29.60;99.90
997;DHT22;487;50.126;8.698;2022-08-01T12:45:27;29.60;99.90
997;DHT22;487;50.126;8.698;2022-08-01T12:47:57;29.40;99.90
997;DHT22;487;50.126;8.698;2022-08-01T12:50:30;29.00;99.90
997;DHT22;487;50.126;8.698;2022-08-01T12:52:59;28.90;99.90
997;DHT22;487;50.126;8.698;2022-08-01T12:55:28;28.80;99.90
997;DHT22;487;50.126;8.698;2022-08-01T12:58:05;28.70;99.90
997;DHT22;487;50.126;8.698;2022-08-01T13:00:42;28.60;99.90
997;DHT22;487;50.126;8.698;2022-08-01T13:03:12;28.60;99.90
997;DHT22;487;50.126;8.698;2022-08-01T13:05:43;28.60;99.90
997;DHT22;487;50.126;8.698;2022-08-01T13:08:12;28.60;99.90
997;DHT22;487;50.126;8.698;2022-08-01T13:10:41;28.70;99.90
997;DHT22;487;50.126;8.698;2022-08-01T13:13:10;28.70;99.90
997;DHT22;487;50.126;8.698;2022-08-01T13:16:04;28.70;99.90
997;DHT22;487;50.126;8.698;2022-08-01T13:18:35;28.70;99.90
997;DHT22;487;50.126;8.698;2022-08-01T13:21:11;28.80;99.90
997;DHT22;487;50.126;8.698;2022-08-01T13:23:41;28.80;99.90
997;DHT22;487;50.126;8.698;2022-08-01T13:26:40;28.80;99.90
997;DHT22;487;50.126;8.698;2022-08-01T13:29:10;28.70;99.90
997;DHT22;487;50.126;8.698;2022-08-01T13:31:39;28.80;99.90
997;DHT22;487;50.126;8.698;2022-08-01T13:34:08;28.70;99.90
997;DHT22;487;50.126;8.698;2022-08-01T13:36:38;28.70;99.90
997;DHT22;487;50.126;8.698;2022-08-01T13:39:14;28.60;99.90
997;DHT22;487;50.126;8.698;2022-08-01T13:41:59;28.50;99.90
997;DHT22;487;50.126;8.698;2022-08-01T13:44:27;28.50;99.90
997;DHT22;487;50.126;8.698;2022-08-01T13:46:55;28.50;99.90
997;DHT22;487;50.126;8.698;2022-08-01T13:49:23;28.50;99.90
997;DHT22;487;50.126;8.698;2022-08-01T13:52:04;28.50;99.90
997;DHT22;487;50.126;8.698;2022-08-01T13:54:34;28.50;99.90
997;DHT22;487;50.126;8.698;2022-08-01T13:57:03;28.50;99.90
997;DHT22;487;50.126;8.698;2022-08-01T13:59:30;28.50;99.90
997;DHT22;487;50.126;8.698;2022-08-01T14:01:58;28.40;99.90
997;DHT22;487;50.126;8.698;2022-08-01T14:04:26;28.40;99.90
997;DHT22;487;50.126;8.698;2022-08-01T14:06:54;28.40;99.90
997;DHT22;487;50.126;8.698;2022-08-01T14:09:25;28.40;99.90
997;DHT22;487;50.126;8.698;2022-08-01T14:11:58;28.30;99.90
997;DHT22;487;50.126;8.698;2022-08-01T14:14:26;28.30;99.90
997;DHT22;487;50.126;8.698;2022-08-01T14:16:54;28.30;99.90
997;DHT22;487;50.126;8.698;2022-08-01T14:19:22;28.30;99.90
997;DHT22;487;50.126;8.698;2022-08-01T14:22:05;28.10;99.90
997;DHT22;487;50.126;8.698;2022-08-01T14:24:35;28.10;99.90
997;DHT22;487;50.126;8.698;2022-08-01T14:27:04;28.10;99.90
997;DHT22;487;50.126;8.698;2022-08-01T14:29:32;28.10;99.90
997;DHT22;487;50.126;8.698;2022-08-01T14:32:20;28.00;99.90
997;DHT22;487;50.126;8.698;2022-08-01T14:34:54;28.00;99.90
997;DHT22;487;50.126;8.698;2022-08-01T14:37:22;28.00;99.90
997;DHT22;487;50.126;8.698;2022-08-01T14:39:58;28.00;99.90
997;DHT22;487;50.126;8.698;2022-08-01T14:42:27;28.00;99.90
997;DHT22;487;50.126;8.698;2022-08-01T14:47:23;28.00;99.90
997;DHT22;487;50.126;8.698;2022-08-01T14:49:51;27.70;99.90
997;DHT22;487;50.126;8.698;2022-08-01T14:52:19;27.80;99.90
997;DHT22;487;50.126;8.698;2022-08-01T14:54:54;27.80;99.90
997;DHT22;487;50.126;8.698;2022-08-01T14:57:24;27.90;99.90
997;DHT22;487;50.126;8.698;2022-08-01T14:59:52;28.00;99.90
997;DHT22;487;50.126;8.698;2022-08-01T15:02:20;27.90;99.90
997;DHT22;487;50.126;8.698;2022-08-01T15:04:49;27.90;99.90
997;DHT22;487;50.126;8.698;2022-08-01T15:07:17;27.90;99.90
997;DHT22;487;50.126;8.698;2022-08-01T15:12:13;28.20;99.90
997;DHT22;487;50.126;8.698;2022-08-01T15:14:43;28.20;99.90
997;DHT22;487;50.126;8.698;2022-08-01T15:17:18;28.40;99.90
997;DHT22;487;50.126;8.698;2022-08-01T15:19:49;28.40;99.90
997;DHT22;487;50.126;8.698;2022-08-01T15:24:46;28.40;99.90
997;DHT22;487;50.126;8.698;2022-08-01T15:27:14;28.30;99.90
997;DHT22;487;50.126;8.698;2022-08-01T15:29:43;28.20;99.90
997;DHT22;487;50.126;8.698;2022-08-01T15:32:11;28.30;99.90
997;DHT22;487;50.126;8.698;2022-08-01T15:34:41;28.40;99.90
997;DHT22;487;50.126;8.698;2022-08-01T15:37:10;28.40;99.90
997;DHT22;487;50.126;8.698;2022-08-01T15:39:38;28.40;99.90
997;DHT22;487;50.126;8.698;2022-08-01T15:42:08;28.40;99.90
997;DHT22;487;50.126;8.698;2022-08-01T15:44:37;28.40;99.90
997;DHT22;487;50.126;8.698;2022-08-01T15:47:07;28.50;99.90
997;DHT22;487;50.126;8.698;2022-08-01T15:49:36;28.60;99.90
997;DHT22;487;50.126;8.698;2022-08-01T15:52:04;28.60;99.90
997;DHT22;487;50.126;8.698;2022-08-01T15:54:47;28.60;99.90
997;DHT22;487;50.126;8.698;2022-08-01T15:57:15;28.60;99.90
997;DHT22;487;50.126;8.698;2022-08-01T15:59:43;28.50;99.90
997;DHT22;487;50.126;8.698;2022-08-01T16:02:12;28.60;99.90
997;DHT22;487;50.126;8.698;2022-08-01T16:04:41;28.60;99.90
997;DHT22;487;50.126;8.698;2022-08-01T16:07:09;28.60;99.90
997;DHT22;487;50.126;8.698;2022-08-01T16:09:37;28.60;99.90
997;DHT22;487;50.126;8.698;2022-08-01T16:12:06;28.70;99.90
997;DHT22;487;50.126;8.698;2022-08-01T16:14:36;28.70;99.90
997;DHT22;487;50.126;8.698;2022-08-01T16:17:03;28.70;99.90
997;DHT22;487;50.126;8.698;2022-08-01T16:19:33;28.70;99.90
997;DHT22;487;50.126;8.698;2022-08-01T16:22:01;28.70;99.90
997;DHT22;487;50.126;8.698;2022-08-01T16:26:57;28.60;99.90
997;DHT22;487;50.126;8.698;2022-08-01T16:29:25;28.50;99.90
997;DHT22;487;50.126;8.698;2022-08-01T16:31:56;28.60;99.90
997;DHT22;487;50.126;8.698;2022-08-01T16:34:46;28.60;99.90
997;DHT22;487;50.126;8.698;2022-08-01T16:37:14;28.60;99.90
997;DHT22;487;50.126;8.698;2022-08-01T16:39:42;28.70;99.90
997;DHT22;487;50.126;8.698;2022-08-01T16:42:13;28.80;99.90
997;DHT22;487;50.126;8.698;2022-08-01T16:44:41;28.80;99.90
997;DHT22;487;50.126;8.698;2022-08-01T16:47:10;28.80;99.90
997;DHT22;487;50.126;8.698;2022-08-01T16:49:38;28.90;99.90
997;DHT22;487;50.126;8.698;2022-08-01T16:52:07;28.90;99.90
997;DHT22;487;50.126;8.698;2022-08-01T16:54:36;29.00;99.90
997;DHT22;487;50.126;8.698;2022-08-01T16:57:04;29.00;99.90
997;DHT22;487;50.126;8.698;2022-08-01T16:59:35;29.00;99.90
997;DHT22;487;50.126;8.698;2022-08-01T17:02:08;28.90;99.90
997;DHT22;487;50.126;8.698;2022-08-01T17:04:36;28.90;99.90
997;DHT22;487;50.126;8.698;2022-08-01T17:07:04;28.90;99.90
997;DHT22;487;50.126;8.698;2022-08-01T17:09:33;28.80;99.90
997;DHT22;487;50.126;8.698;2022-08-01T17:12:09;28.70;99.90
997;DHT22;487;50.126;8.698;2022-08-01T17:14:43;28.60;99.90
997;DHT22;487;50.126;8.698;2022-08-01T17:17:12;28.60;99.90
997;DHT22;487;50.126;8.698;2022-08-01T17:19:40;28.70;99.90
997;DHT22;487;50.126;8.698;2022-08-01T17:22:08;28.70;99.90
997;DHT22;487;50.126;8.698;2022-08-01T17:24:37;28.70;99.90
997;DHT22;487;50.126;8.698;2022-08-01T17:27:05;29.00;99.90
997;DHT22;487;50.126;8.698;2022-08-01T17:32:09;30.10;99.90
997;DHT22;487;50.126;8.698;2022-08-01T17:34:37;30.20;99.90
997;DHT22;487;50.126;8.698;2022-08-01T17:37:05;31.00;99.90
997;DHT22;487;50.126;8.698;2022-08-01T17:39:34;31.40;99.90
997;DHT22;487;50.126;8.698;2022-08-01T17:42:07;31.80;99.90